Time;durP1;ratioP1;P1;durP2;ratioP2;P2;SDS_P1;SDS_P2;PMS_P1;PMS_P2;Temp;Humidity;BMP_temperature;BMP_pressure;BME280_temperature;BME280_humidity;BME280_pressure;Samples;Min_cycle;Max_cycle;Signal;HPM_P1;HPM_P2
2023/11/02 00:01:30;;;;;;;3.53;1.40;;;12.80;99.90;;;;;;5042720;28;20021;-81
2023/11/02 00:03:56;;;;;;;5.82;2.13;;;12.80;99.90;;;;;;5040687;28;20384;-81
2023/11/02 00:06:25;;;;;;;4.35;2.10;;;12.80;99.90;;;;;;5041215;28;20120;-81
2023/11/02 00:09:23;;;;;;;9.00;2.00;;;12.80;99.90;;;;;;5042802;28;20017;-80
2023/11/02 00:11:54;;;;;;;5.40;1.85;;;12.80;99.90;;;;;;5036876;28;20029;-80
2023/11/02 00:14:21;;;;;;;4.97;2.22;;;12.80;99.90;;;;;;5040732;28;20026;-80
2023/11/02 00:16:48;;;;;;;4.93;2.10;;;12.70;99.90;;;;;;5038883;28;20055;-80
2023/11/02 00:19:37;;;;;;;4.47;1.70;;;12.70;99.90;;;;;;5035830;28;20025;-81
2023/11/02 00:22:08;;;;;;;5.45;1.67;;;12.80;99.90;;;;;;5036044;28;20362;-81
2023/11/02 00:24:41;;;;;;;4.07;2.47;;;12.80;99.90;;;;;;5040898;28;20098;-81
2023/11/02 00:27:07;;;;;;;2.83;1.83;;;12.70;99.90;;;;;;5042946;28;20275;-82
2023/11/02 00:29:33;;;;;;;6.25;2.30;;;12.70;99.90;;;;;;5038015;28;20109;-81
2023/11/02 00:31:59;;;;;;;6.90;2.13;;;12.70;99.90;;;;;;5040670;28;20495;-81
2023/11/02 00:34:27;;;;;;;2.85;1.70;;;12.70;99.90;;;;;;5040339;28;20074;-82
2023/11/02 00:36:55;;;;;;;3.40;1.50;;;12.70;99.90;;;;;;5042228;28;20559;-81
2023/11/02 00:39:20;;;;;;;9.57;2.20;;;12.70;99.90;;;;;;5039638;28;20030;-81
2023/11/02 00:41:47;;;;;;;7.68;2.10;;;12.80;99.90;;;;;;5039310;28;20035;-81
2023/11/02 00:44:13;;;;;;;7.05;1.90;;;12.80;99.90;;;;;;5040540;28;20032;-81
2023/11/02 00:46:40;;;;;;;5.20;1.70;;;12.70;99.90;;;;;;5039114;28;20040;-81
2023/11/02 00:49:17;;;;;;;5.22;1.88;;;12.80;99.90;;;;;;5035624;28;20068;-82
2023/11/02 00:51:43;;;;;;;6.03;2.22;;;12.80;99.90;;;;;;5038398;28;20033;-81
2023/11/02 00:54:47;;;;;;;4.20;1.73;;;12.80;99.90;;;;;;5041046;28;20025;-81
2023/11/02 00:57:14;;;;;;;2.97;1.88;;;12.80;99.90;;;;;;5037239;28;20174;-82
2023/11/02 00:59:40;;;;;;;4.05;2.03;;;12.80;99.90;;;;;;5038612;28;20064;-82
2023/11/02 01:02:09;;;;;;;3.08;1.98;;;12.80;99.90;;;;;;5038535;28;20507;-81
2023/11/02 01:04:44;;;;;;;5.70;2.25;;;12.80;99.90;;;;;;5041103;28;20025;-81
2023/11/02 01:07:15;;;;;;;5.07;2.20;;;12.80;99.90;;;;;;5038158;28;20032;-81
2023/11/02 01:09:46;;;;;;;3.53;1.90;;;12.80;99.90;;;;;;5036016;28;20052;-81
2023/11/02 01:12:23;;;;;;;4.25;2.15;;;12.70;99.90;;;;;;5039754;28;20037;-82
2023/11/02 01:14:49;;;;;;;4.32;1.80;;;12.80;99.90;;;;;;5041654;28;20025;-81
2023/11/02 01:17:30;;;;;;;5.00;2.05;;;12.80;99.90;;;;;;5037983;28;20525;-82
2023/11/02 01:20:10;;;;;;;1.75;1.58;;;12.80;99.90;;;;;;5035763;28;20393;-81
2023/11/02 01:22:52;;;;;;;5.07;2.00;;;12.80;99.90;;;;;;5037176;28;20014;-82
2023/11/02 01:25:18;;;;;;;;;;;12.80;99.90;;;;;;5039606;28;20033;-82
2023/11/02 01:27:46;;;;;;;2.83;1.20;;;12.80;99.90;;;;;;5044336;28;19905;-81
2023/11/02 01:30:17;;;;;;;3.70;1.35;;;12.70;99.90;;;;;;5038389;28;20024;-82
2023/11/02 01:32:43;;;;;;;1.77;1.33;;;12.80;99.90;;;;;;5038091;28;20056;-83
2023/11/02 01:35:43;;;;;;;4.15;1.40;;;12.80;99.90;;;;;;5037699;28;20102;-82
2023/11/02 01:38:13;;;;;;;1.83;1.33;;;12.80;99.90;;;;;;5035500;28;20068;-82
2023/11/02 01:40:51;;;;;;;2.95;1.52;;;12.80;99.90;;;;;;5039328;28;20065;-82
2023/11/02 01:43:24;;;;;;;3.40;1.42;;;12.80;99.90;;;;;;5035474;28;20017;-83
2023/11/02 01:45:56;;;;;;;3.28;1.33;;;12.80;99.90;;;;;;5042053;28;20052;-82
2023/11/02 01:48:53;;;;;;;1.75;1.10;;;12.80;99.90;;;;;;5034336;28;20173;-82
2023/11/02 01:51:31;;;;;;;1.50;1.20;;;12.80;99.90;;;;;;5035197;28;20072;-82
2023/11/02 01:54:06;;;;;;;1.00;0.90;;;12.80;99.90;;;;;;5032559;28;20029;-82
2023/11/02 01:56:32;;;;;;;2.22;1.40;;;12.90;99.90;;;;;;5037584;28;20545;-83
2023/11/02 01:59:21;;;;;;;2.42;1.40;;;12.80;99.90;;;;;;5037913;28;20353;-82
2023/11/02 02:02:13;;;;;;;2.67;1.60;;;12.80;99.90;;;;;;5040096;28;20426;-81
2023/11/02 02:05:03;;;;;;;1.67;1.20;;;12.90;99.90;;;;;;5040630;28;20013;-82
2023/11/02 02:08:10;;;;;;;4.00;1.08;;;12.90;99.90;;;;;;5044368;28;20565;-82
2023/11/02 02:10:42;;;;;;;2.38;0.98;;;12.90;99.90;;;;;;4995235;28;20038;-82
2023/11/02 02:13:28;;;;;;;;;;;12.90;99.90;;;;;;4992669;28;20029;-83
2023/11/02 02:16:08;;;;;;;0.73;0.73;;;12.90;99.90;;;;;;5020444;28;19908;-82
2023/11/02 02:18:43;;;;;;;2.28;1.30;;;12.90;99.90;;;;;;5036401;28;20029;-83
2023/11/02 02:21:34;;;;;;;4.45;1.20;;;12.90;99.90;;;;;;5036294;28;20133;-82
2023/11/02 02:24:21;;;;;;;9.30;1.13;;;12.90;99.90;;;;;;5036514;28;20060;-82
2023/11/02 02:27:28;;;;;;;0.80;0.80;;;12.90;99.90;;;;;;5036616;28;20022;-83
2023/11/02 02:30:26;;;;;;;2.15;1.40;;;12.90;99.90;;;;;;5037201;28;20545;-82
2023/11/02 02:33:27;;;;;;;1.60;0.80;;;12.90;99.90;;;;;;5036747;28;20030;-82
2023/11/02 02:36:18;;;;;;;3.25;0.80;;;13.00;99.90;;;;;;5038568;28;20037;-82
2023/11/02 02:38:48;;;;;;;3.55;0.90;;;13.00;99.90;;;;;;5040273;28;20408;-82
2023/11/02 02:41:21;;;;;;;2.83;0.93;;;13.00;99.90;;;;;;5036765;28;20096;-82
2023/11/02 02:43:52;;;;;;;3.05;0.70;;;13.00;99.90;;;;;;5040307;28;20025;-82
2023/11/02 02:46:21;;;;;;;1.50;0.73;;;13.10;99.90;;;;;;5038051;28;20110;-81
2023/11/02 02:48:47;;;;;;;1.83;0.60;;;13.10;99.90;;;;;;5036781;28;20033;-82
2023/11/02 02:51:15;;;;;;;1.35;0.68;;;13.10;99.90;;;;;;5040088;28;20056;-82
2023/11/02 02:53:43;;;;;;;2.15;0.70;;;13.10;99.90;;;;;;5017296;28;20060;-82
2023/11/02 02:56:12;;;;;;;1.98;0.47;;;13.10;99.90;;;;;;5038919;28;20080;-82
2023/11/02 02:58:50;;;;;;;1.08;0.40;;;13.20;99.90;;;;;;5038922;28;20057;-82
2023/11/02 03:01:19;;;;;;;2.95;0.40;;;13.20;99.90;;;;;;5035448;28;20388;-81
2023/11/02 03:03:46;;;;;;;1.65;0.40;;;13.20;99.90;;;;;;5036450;28;20488;-82
2023/11/02 03:06:12;;;;;;;1.25;0.50;;;13.20;99.90;;;;;;5038928;28;20021;-82
2023/11/02 03:08:43;;;;;;;2.35;0.45;;;13.20;99.90;;;;;;5037265;28;20033;-82
2023/11/02 03:11:11;;;;;;;3.00;0.63;;;13.20;99.90;;;;;;5036893;28;20481;-82
2023/11/02 03:13:39;;;;;;;1.10;0.60;;;13.20;99.90;;;;;;5037046;28;20395;-83
2023/11/02 03:16:08;;;;;;;2.70;1.23;;;13.20;99.90;;;;;;5033536;28;20588;-82
2023/11/02 03:18:38;;;;;;;2.72;0.80;;;13.20;99.90;;;;;;5038223;28;20506;-82
2023/11/02 03:21:04;;;;;;;0.77;0.60;;;13.20;99.90;;;;;;5039655;28;20430;-82
2023/11/02 03:23:38;;;;;;;1.08;0.68;;;13.20;99.90;;;;;;5036786;28;20024;-82
2023/11/02 03:26:26;;;;;;;2.08;0.52;;;13.20;99.90;;;;;;5039206;28;20352;-82
2023/11/02 03:29:01;;;;;;;0.65;0.50;;;13.20;99.90;;;;;;5017604;28;20030;-81
2023/11/02 03:31:29;;;;;;;1.35;0.50;;;13.20;99.90;;;;;;5039810;28;20032;-82
2023/11/02 03:34:21;;;;;;;1.02;0.50;;;13.20;99.90;;;;;;5037637;28;20024;-82
2023/11/02 03:37:02;;;;;;;0.50;0.50;;;13.20;99.90;;;;;;5019298;28;20026;-81
2023/11/02 03:39:51;;;;;;;0.90;0.60;;;13.20;99.90;;;;;;5034014;28;20029;-82
2023/11/02 03:42:30;;;;;;;0.75;0.60;;;13.20;99.90;;;;;;5034473;28;20388;-82
2023/11/02 03:45:10;;;;;;;2.33;0.98;;;13.20;99.90;;;;;;5035300;28;20029;-82
2023/11/02 03:47:42;;;;;;;3.22;0.90;;;13.20;99.90;;;;;;5035300;28;20022;-82
2023/11/02 03:50:21;;;;;;;2.90;0.57;;;13.20;99.90;;;;;;5032784;28;20025;-82
2023/11/02 03:53:11;;;;;;;2.47;0.80;;;13.10;99.90;;;;;;5040330;28;20104;-83
2023/11/02 03:56:12;;;;;;;1.08;0.90;;;13.20;99.90;;;;;;5018327;28;20098;-82
2023/11/02 03:59:04;;;;;;;2.17;1.00;;;13.20;99.90;;;;;;5068867;28;20041;-82
2023/11/02 04:01:29;;;;;;;;;;;13.20;99.90;;;;;;5035112;28;20025;-82
2023/11/02 04:04:03;;;;;;;1.92;0.70;;;13.20;99.90;;;;;;5038589;28;19912;-82
2023/11/02 04:06:43;;;;;;;3.92;0.90;;;13.20;99.90;;;;;;5031635;28;20040;-82
2023/11/02 04:09:13;;;;;;;2.05;0.90;;;13.20;99.90;;;;;;5036392;28;20048;-81
2023/11/02 04:12:12;;;;;;;2.55;0.98;;;13.20;99.90;;;;;;5033439;28;20299;-81
2023/11/02 04:14:43;;;;;;;3.60;0.90;;;13.20;99.90;;;;;;5020089;28;20601;-80
2023/11/02 04:17:11;;;;;;;3.90;0.83;;;13.10;99.90;;;;;;5037196;28;20029;-80
2023/11/02 04:19:37;;;;;;;2.33;0.90;;;13.20;99.90;;;;;;5041614;28;20086;-80
2023/11/02 04:22:05;;;;;;;0.98;0.68;;;13.20;99.90;;;;;;5041137;28;20076;-80
2023/11/02 04:24:31;;;;;;;3.38;0.98;;;13.20;99.90;;;;;;5038552;28;20397;-80
2023/11/02 04:26:57;;;;;;;1.33;1.00;;;13.20;99.90;;;;;;5042616;28;20025;-80
2023/11/02 04:29:22;;;;;;;2.08;0.88;;;13.20;99.90;;;;;;5039775;28;20087;-80
2023/11/02 04:31:48;;;;;;;0.98;0.70;;;13.20;99.90;;;;;;5041247;28;20128;-80
2023/11/02 04:34:14;;;;;;;1.55;0.95;;;13.10;99.90;;;;;;5041246;28;20037;-80
2023/11/02 04:36:40;;;;;;;3.45;0.88;;;13.10;99.90;;;;;;5039149;28;20033;-80
2023/11/02 04:39:05;;;;;;;1.83;0.80;;;13.00;99.90;;;;;;5038398;28;20135;-80
2023/11/02 04:41:31;;;;;;;3.97;0.90;;;13.00;99.90;;;;;;5039780;28;20155;-80
2023/11/02 04:43:57;;;;;;;4.40;1.00;;;13.00;99.90;;;;;;5039632;28;20021;-80
2023/11/02 04:46:23;;;;;;;1.23;0.77;;;12.90;99.90;;;;;;5040177;28;20021;-81
2023/11/02 04:48:49;;;;;;;3.55;0.90;;;13.00;99.90;;;;;;5039080;28;20712;-81
2023/11/02 04:51:14;;;;;;;1.50;0.98;;;12.90;99.90;;;;;;5035239;28;20029;-81
2023/11/02 04:53:40;;;;;;;2.90;0.70;;;12.90;99.90;;;;;;5041336;28;20061;-81
2023/11/02 04:56:06;;;;;;;4.80;0.88;;;12.80;99.90;;;;;;5044741;28;20440;-81
2023/11/02 04:58:32;;;;;;;0.70;0.70;;;12.80;99.90;;;;;;5042907;28;20035;-81
2023/11/02 05:00:57;;;;;;;0.95;0.80;;;12.80;99.90;;;;;;5038508;28;20104;-82
2023/11/02 05:03:23;;;;;;;2.28;0.65;;;12.70;99.90;;;;;;5041830;28;20021;-81
2023/11/02 05:05:49;;;;;;;1.05;0.60;;;12.70;99.90;;;;;;5036988;28;20516;-82
2023/11/02 05:08:14;;;;;;;0.95;0.50;;;12.70;99.90;;;;;;5040416;28;20025;-81
2023/11/02 05:10:40;;;;;;;4.30;0.65;;;12.70;99.90;;;;;;5038175;28;20512;-81
2023/11/02 05:13:06;;;;;;;1.95;0.70;;;12.70;99.90;;;;;;5041807;28;20161;-82
2023/11/02 05:15:31;;;;;;;1.35;0.52;;;12.70;99.90;;;;;;5041838;28;20060;-81
2023/11/02 05:17:57;;;;;;;1.83;0.55;;;12.70;99.90;;;;;;5040443;28;20018;-81
2023/11/02 05:20:25;;;;;;;0.50;0.50;;;12.70;99.90;;;;;;5038920;28;20040;-82
2023/11/02 05:22:50;;;;;;;1.08;0.50;;;12.70;99.90;;;;;;5038990;28;20025;-81
2023/11/02 05:25:16;;;;;;;1.50;0.60;;;12.70;99.90;;;;;;5041542;28;20460;-81
2023/11/02 05:27:42;;;;;;;2.30;0.50;;;12.70;99.90;;;;;;5041615;28;20047;-81
2023/11/02 05:30:08;;;;;;;1.30;0.60;;;12.70;99.90;;;;;;5036782;28;20032;-81
2023/11/02 05:32:33;;;;;;;0.68;0.57;;;12.70;99.90;;;;;;5038993;28;20025;-81
2023/11/02 05:34:59;;;;;;;0.52;0.52;;;12.60;99.90;;;;;;5037351;28;20397;-82
2023/11/02 05:37:25;;;;;;;0.63;0.40;;;12.70;99.90;;;;;;5036040;28;20128;-82
2023/11/02 05:39:52;;;;;;;1.30;0.80;;;12.60;99.90;;;;;;5037478;28;20029;-82
2023/11/02 05:42:17;;;;;;;1.50;0.65;;;12.70;99.90;;;;;;5039848;28;20100;-81
2023/11/02 05:44:43;;;;;;;1.30;0.60;;;12.60;99.90;;;;;;5038977;28;20170;-82
2023/11/02 05:47:09;;;;;;;1.05;0.70;;;12.70;99.90;;;;;;5041136;28;20029;-82
2023/11/02 05:49:34;;;;;;;2.47;0.90;;;12.70;99.90;;;;;;5041981;28;20029;-82
2023/11/02 05:52:00;;;;;;;1.80;0.50;;;12.70;99.90;;;;;;5040663;28;20029;-82
2023/11/02 05:54:26;;;;;;;0.45;0.45;;;12.70;99.90;;;;;;5039292;28;20029;-81
2023/11/02 05:56:52;;;;;;;0.93;0.57;;;12.70;99.90;;;;;;5037390;28;20026;-81
2023/11/02 05:59:17;;;;;;;1.02;0.65;;;12.70;99.90;;;;;;5035736;28;20029;-81
2023/11/02 06:01:44;;;;;;;4.10;0.50;;;12.80;99.90;;;;;;5041673;28;20025;-81
2023/11/02 06:04:10;;;;;;;3.20;0.77;;;12.80;99.90;;;;;;5039594;28;20021;-81
2023/11/02 06:06:36;;;;;;;0.65;0.50;;;12.80;99.90;;;;;;5037010;28;20030;-82
2023/11/02 06:09:02;;;;;;;3.28;0.70;;;12.80;99.90;;;;;;5039660;28;20029;-82
2023/11/02 06:11:28;;;;;;;0.80;0.40;;;12.80;99.90;;;;;;5037672;28;20017;-82
2023/11/02 06:13:54;;;;;;;2.03;0.60;;;12.80;99.90;;;;;;5036603;28;20032;-81
2023/11/02 06:16:21;;;;;;;0.75;0.40;;;12.80;99.90;;;;;;5037143;28;20060;-82
2023/11/02 06:18:49;;;;;;;1.88;0.60;;;12.80;99.90;;;;;;5038283;28;20040;-81
2023/11/02 06:21:14;;;;;;;0.77;0.47;;;12.80;99.90;;;;;;5037708;28;20090;-81
2023/11/02 06:23:41;;;;;;;0.50;0.50;;;12.90;99.90;;;;;;5041516;28;20021;-81
2023/11/02 06:26:06;;;;;;;2.83;0.80;;;12.80;99.90;;;;;;5039566;28;20017;-81
2023/11/02 06:28:33;;;;;;;2.28;0.73;;;12.80;99.90;;;;;;5036919;28;20062;-81
2023/11/02 06:30:59;;;;;;;1.90;0.57;;;12.90;99.90;;;;;;5032821;28;20026;-80
2023/11/02 06:33:27;;;;;;;2.50;0.70;;;12.90;99.90;;;;;;5040402;28;20108;-81
2023/11/02 06:35:54;;;;;;;2.60;0.77;;;12.90;99.90;;;;;;5034673;28;20026;-80
2023/11/02 06:38:21;;;;;;;1.65;0.60;;;12.80;99.90;;;;;;5041075;28;20049;-80
2023/11/02 06:40:47;;;;;;;1.60;0.75;;;12.80;99.90;;;;;;5037432;28;20021;-80
2023/11/02 06:43:13;;;;;;;3.25;0.98;;;12.80;99.90;;;;;;5040489;28;20426;-80
2023/11/02 06:45:39;;;;;;;3.47;0.80;;;12.80;99.90;;;;;;5037984;28;20025;-80
2023/11/02 06:48:05;;;;;;;2.13;0.80;;;12.80;99.90;;;;;;5037459;28;20480;-80
2023/11/02 06:50:32;;;;;;;1.58;0.82;;;12.80;99.90;;;;;;5038365;28;20025;-80
2023/11/02 06:52:57;;;;;;;1.40;0.98;;;12.80;99.90;;;;;;5037209;28;20096;-80
2023/11/02 06:55:23;;;;;;;2.03;0.70;;;12.80;99.90;;;;;;5040096;28;20104;-80
2023/11/02 06:57:49;;;;;;;1.13;0.70;;;12.70;99.90;;;;;;5040242;28;20504;-80
2023/11/02 07:00:15;;;;;;;1.83;0.60;;;12.70;99.90;;;;;;5022952;28;20032;-80
2023/11/02 07:02:41;;;;;;;2.83;0.75;;;12.80;99.90;;;;;;5029401;28;20106;-79
2023/11/02 07:05:09;;;;;;;1.27;1.10;;;12.80;99.90;;;;;;5030035;28;20112;-80
2023/11/02 07:07:35;;;;;;;1.23;0.77;;;12.80;99.90;;;;;;5036717;28;20021;-79
2023/11/02 07:10:05;;;;;;;3.03;0.93;;;12.80;99.90;;;;;;5029733;28;20029;-79
2023/11/02 07:12:31;;;;;;;3.35;0.93;;;12.80;99.90;;;;;;5029840;28;20029;-80
2023/11/02 07:14:57;;;;;;;1.33;0.80;;;12.80;99.90;;;;;;5028631;28;20025;-80
2023/11/02 07:17:22;;;;;;;2.13;0.85;;;12.80;99.90;;;;;;5036073;28;20033;-74
2023/11/02 07:19:48;;;;;;;2.10;0.82;;;12.80;99.90;;;;;;5038006;28;20032;-74
2023/11/02 07:22:14;;;;;;;1.38;0.70;;;12.80;99.90;;;;;;5036203;28;20097;-75
2023/11/02 07:24:41;;;;;;;0.73;0.70;;;12.90;99.90;;;;;;5038903;28;20553;-74
2023/11/02 07:27:08;;;;;;;1.10;0.77;;;12.80;99.90;;;;;;5032273;28;20473;-74
2023/11/02 07:29:33;;;;;;;1.38;0.70;;;12.80;99.90;;;;;;5035586;28;20181;-74
2023/11/02 07:31:59;;;;;;;3.00;1.02;;;12.80;99.90;;;;;;5036774;28;20559;-74
2023/11/02 07:34:25;;;;;;;3.05;1.08;;;12.90;99.90;;;;;;5038136;28;20114;-74
2023/11/02 07:36:52;;;;;;;1.75;1.00;;;12.90;99.90;;;;;;5036087;28;20154;-75
2023/11/02 07:39:17;;;;;;;2.75;1.02;;;12.90;99.90;;;;;;5038885;28;20032;-75
2023/11/02 07:41:43;;;;;;;1.10;0.93;;;12.90;99.90;;;;;;5037876;28;20026;-74
2023/11/02 07:44:09;;;;;;;2.42;0.82;;;12.90;99.90;;;;;;5037469;28;20021;-74
2023/11/02 07:46:34;;;;;;;1.13;0.40;;;12.90;99.90;;;;;;5035784;28;20030;-74
2023/11/02 07:49:00;;;;;;;1.40;0.90;;;12.90;99.90;;;;;;5039308;28;20077;-74
2023/11/02 07:51:26;;;;;;;2.15;0.60;;;13.00;99.90;;;;;;5037394;28;20508;-74
2023/11/02 07:53:51;;;;;;;1.25;0.63;;;13.00;99.90;;;;;;5040267;28;20029;-75
2023/11/02 07:56:17;;;;;;;1.92;0.73;;;13.00;99.90;;;;;;5040828;28;20025;-75
2023/11/02 07:58:43;;;;;;;1.10;0.65;;;13.10;99.90;;;;;;5038036;28;20022;-75
2023/11/02 08:01:09;;;;;;;0.57;0.57;;;13.10;99.90;;;;;;5039903;28;20108;-74
2023/11/02 08:03:35;;;;;;;0.88;0.45;;;13.10;99.90;;;;;;5039735;28;20029;-74
2023/11/02 08:06:01;;;;;;;0.75;0.40;;;13.10;99.90;;;;;;5039935;28;20494;-74
2023/11/02 08:08:27;;;;;;;0.80;0.50;;;13.10;99.90;;;;;;5040764;28;20029;-75
2023/11/02 08:10:54;;;;;;;0.85;0.70;;;13.20;99.90;;;;;;5042597;28;20025;-74
2023/11/02 08:13:19;;;;;;;0.65;0.50;;;13.20;99.90;;;;;;5042757;28;20384;-76
2023/11/02 08:15:45;;;;;;;0.80;0.60;;;13.20;99.90;;;;;;5039000;28;20037;-74
2023/11/02 08:18:11;;;;;;;0.43;0.40;;;13.20;99.90;;;;;;5037321;28;20109;-74
2023/11/02 08:20:37;;;;;;;2.78;0.65;;;13.20;99.90;;;;;;5038174;28;20029;-74
2023/11/02 08:23:02;;;;;;;0.85;0.50;;;13.20;99.90;;;;;;5036172;28;20048;-74
2023/11/02 08:25:28;;;;;;;1.20;0.63;;;13.30;99.90;;;;;;5037085;28;20017;-74
2023/11/02 08:27:57;;;;;;;1.00;0.65;;;13.30;99.90;;;;;;5036588;28;20022;-74
2023/11/02 08:30:26;;;;;;;1.90;0.82;;;13.30;99.90;;;;;;5032996;28;20108;-74
2023/11/02 08:32:53;;;;;;;0.52;0.50;;;13.30;99.90;;;;;;5038676;28;20440;-74
2023/11/02 08:35:21;;;;;;;25.85;18.88;;;13.30;99.90;;;;;;5036299;28;20389;-74
2023/11/02 08:37:47;;;;;;;21.27;15.82;;;13.30;99.90;;;;;;5035320;28;20038;-74
2023/11/02 08:40:13;;;;;;;4.88;4.38;;;13.30;99.90;;;;;;5038149;28;20594;-74
2023/11/02 08:42:40;;;;;;;1.25;1.00;;;13.40;99.90;;;;;;5034432;28;20023;-75
2023/11/02 08:45:06;;;;;;;2.00;0.90;;;13.30;99.90;;;;;;5039065;28;20043;-74
2023/11/02 08:47:32;;;;;;;1.45;1.35;;;13.40;99.90;;;;;;5034494;28;20021;-73
2023/11/02 08:49:57;;;;;;;0.82;0.80;;;13.40;99.90;;;;;;5036354;28;20560;-73
2023/11/02 08:52:23;;;;;;;0.80;0.73;;;13.40;99.90;;;;;;5041145;28;20537;-79
2023/11/02 08:54:52;;;;;;;0.60;0.60;;;13.40;99.90;;;;;;5035344;28;20048;-79
2023/11/02 08:57:18;;;;;;;5.72;5.15;;;13.40;99.90;;;;;;5040673;28;20025;-79
2023/11/02 08:59:45;;;;;;;4.32;2.22;;;13.40;99.90;;;;;;5037641;28;20041;-79
2023/11/02 09:02:10;;;;;;;2.45;2.17;;;13.50;99.90;;;;;;5041843;28;20027;-79
2023/11/02 09:04:36;;;;;;;4.20;3.90;;;13.50;99.90;;;;;;5037361;28;20030;-79
2023/11/02 09:07:02;;;;;;;1.80;1.70;;;13.50;99.90;;;;;;5041063;28;20341;-79
2023/11/02 09:09:28;;;;;;;1.50;1.30;;;13.50;99.90;;;;;;5040198;28;20025;-79
2023/11/02 09:11:54;;;;;;;1.77;1.67;;;13.50;99.90;;;;;;5039420;28;20399;-79
2023/11/02 09:14:20;;;;;;;0.40;0.40;;;13.50;99.90;;;;;;5040491;28;20070;-79
2023/11/02 09:16:46;;;;;;;3.28;0.60;;;13.50;99.90;;;;;;5038803;28;20122;-79
2023/11/02 09:19:12;;;;;;;1.33;0.63;;;13.50;99.90;;;;;;5042102;28;20030;-78
2023/11/02 09:21:39;;;;;;;0.85;0.70;;;13.50;99.90;;;;;;5039804;28;20032;-78
2023/11/02 09:24:05;;;;;;;0.43;0.20;;;13.50;99.90;;;;;;5041388;28;20013;-79
2023/11/02 09:26:31;;;;;;;3.05;0.35;;;13.50;99.90;;;;;;5037723;28;20026;-79
2023/11/02 09:28:58;;;;;;;0.47;0.47;;;13.50;99.90;;;;;;5037720;28;20033;-79
2023/11/02 09:31:29;;;;;;;0.95;0.63;;;13.50;99.90;;;;;;5041557;28;20028;-79
2023/11/02 09:33:56;;;;;;;1.95;1.10;;;13.50;99.90;;;;;;5040248;28;20025;-79
2023/11/02 09:36:23;;;;;;;2.78;1.08;;;13.50;99.90;;;;;;5038658;28;20025;-79
2023/11/02 09:38:48;;;;;;;18.00;13.52;;;13.50;99.90;;;;;;5038742;28;20041;-79
2023/11/02 09:41:14;;;;;;;4.68;4.38;;;13.50;99.90;;;;;;5038986;28;20529;-79
2023/11/02 09:43:43;;;;;;;6.20;5.70;;;13.50;99.90;;;;;;5037348;28;20033;-79
2023/11/02 09:46:11;;;;;;;1.00;0.95;;;13.50;99.90;;;;;;5034788;28;20021;-79
2023/11/02 09:48:37;;;;;;;1.58;1.30;;;13.50;99.90;;;;;;5040005;28;20025;-79
2023/11/02 09:51:03;;;;;;;1.70;1.60;;;13.50;99.90;;;;;;5040163;28;20096;-79
2023/11/02 09:53:30;;;;;;;0.80;0.80;;;13.50;99.90;;;;;;5038273;28;20054;-79
2023/11/02 09:55:56;;;;;;;0.70;0.70;;;13.50;99.90;;;;;;5033641;28;20022;-80
2023/11/02 09:58:23;;;;;;;2.17;2.08;;;13.50;99.90;;;;;;5034426;28;20032;-79
2023/11/02 10:00:50;;;;;;;1.25;0.85;;;13.50;99.90;;;;;;5036737;28;20056;-79
2023/11/02 10:03:16;;;;;;;1.00;0.63;;;13.50;99.90;;;;;;5038244;28;20392;-79
2023/11/02 10:05:44;;;;;;;1.25;0.50;;;13.50;99.90;;;;;;5039871;28;20024;-79
2023/11/02 10:08:10;;;;;;;1.05;0.90;;;13.50;99.90;;;;;;5038597;28;20030;-79
2023/11/02 10:10:35;;;;;;;1.40;1.30;;;13.50;99.90;;;;;;5035493;28;20557;-79
2023/11/02 10:13:01;;;;;;;2.13;1.33;;;13.50;99.90;;;;;;5036648;28;20021;-79
2023/11/02 10:15:29;;;;;;;1.40;1.23;;;13.60;99.90;;;;;;5041166;28;20021;-79
2023/11/02 10:17:55;;;;;;;1.70;1.15;;;13.60;99.90;;;;;;5037093;28;20017;-79
2023/11/02 10:20:20;;;;;;;1.23;1.20;;;13.60;99.90;;;;;;5037375;28;20040;-79
2023/11/02 10:23:12;;;;;;;2.70;1.20;;;13.60;99.90;;;;;;5037544;28;20059;-79
2023/11/02 10:25:41;;;;;;;1.23;1.20;;;13.60;99.90;;;;;;5040143;28;20046;-79
2023/11/02 10:28:07;;;;;;;2.45;2.20;;;13.60;99.90;;;;;;5037553;28;20026;-79
2023/11/02 10:30:33;;;;;;;2.95;1.05;;;13.60;99.90;;;;;;5041391;28;20033;-79
2023/11/02 10:33:06;;;;;;;1.25;1.15;;;13.60;99.90;;;;;;5037629;28;20029;-79
2023/11/02 10:35:32;;;;;;;3.88;2.10;;;13.60;99.90;;;;;;5040737;28;20073;-79
2023/11/02 10:37:59;;;;;;;1.30;1.20;;;13.60;99.90;;;;;;5037703;28;20136;-80
2023/11/02 10:40:44;;;;;;;2.25;1.35;;;13.60;99.90;;;;;;5037414;28;20484;-80
2023/11/02 10:43:18;;;;;;;4.82;1.05;;;13.60;99.90;;;;;;5035429;28;20026;-80
2023/11/02 10:45:53;;;;;;;3.83;2.75;;;13.70;99.90;;;;;;5037722;28;20026;-80
2023/11/02 10:48:20;;;;;;;2.35;0.90;;;13.70;99.90;;;;;;5035441;28;20040;-80
2023/11/02 10:50:47;;;;;;;1.27;0.68;;;13.70;99.90;;;;;;5038531;28;20112;-80
2023/11/02 10:53:21;;;;;;;2.85;2.05;;;13.70;99.90;;;;;;5038993;28;20492;-79
2023/11/02 10:55:48;;;;;;;4.20;2.08;;;13.70;99.90;;;;;;5017491;28;20021;-80
2023/11/02 10:58:16;;;;;;;1.92;1.17;;;13.70;99.90;;;;;;5039137;28;20070;-80
2023/11/02 11:00:42;;;;;;;3.63;1.27;;;13.70;99.90;;;;;;5037174;28;20053;-80
2023/11/02 11:03:09;;;;;;;5.00;1.25;;;13.60;99.90;;;;;;5037192;28;20503;-80
2023/11/02 11:05:36;;;;;;;2.60;1.00;;;13.70;99.90;;;;;;5039238;28;20119;-80
2023/11/02 11:08:04;;;;;;;2.95;1.00;;;13.60;99.90;;;;;;5043106;28;20014;-80
2023/11/02 11:10:30;;;;;;;1.30;1.20;;;13.60;99.90;;;;;;5035587;28;20034;-80
2023/11/02 11:12:56;;;;;;;2.78;1.35;;;13.60;99.90;;;;;;5029098;28;20021;-80
2023/11/02 11:15:25;;;;;;;1.65;0.70;;;13.60;99.90;;;;;;5038883;28;20493;-80
2023/11/02 11:17:51;;;;;;;5.15;0.90;;;13.60;99.90;;;;;;5038076;28;20077;-80
2023/11/02 11:20:17;;;;;;;1.17;1.00;;;13.60;99.90;;;;;;5038063;28;20022;-80
2023/11/02 11:22:46;;;;;;;3.00;1.23;;;13.50;99.90;;;;;;5037395;28;20033;-80
2023/11/02 11:25:13;;;;;;;1.40;0.80;;;13.50;99.90;;;;;;5041200;28;20016;-81
2023/11/02 11:27:39;;;;;;;1.15;0.85;;;13.60;99.90;;;;;;5043188;28;20037;-81
2023/11/02 11:30:21;;;;;;;2.65;1.63;;;13.60;99.90;;;;;;5044831;28;20121;-80
2023/11/02 11:32:51;;;;;;;1.35;0.80;;;13.60;99.90;;;;;;5041515;28;20021;-81
2023/11/02 11:35:19;;;;;;;1.23;0.93;;;13.50;99.90;;;;;;5045316;28;20057;-81
2023/11/02 11:38:00;;;;;;;1.63;0.80;;;13.60;99.90;;;;;;5040135;28;20511;-81
2023/11/02 11:40:29;;;;;;;1.25;0.85;;;13.50;99.90;;;;;;5039972;28;20025;-81
2023/11/02 11:43:01;;;;;;;1.85;0.60;;;13.50;99.90;;;;;;5042089;28;20025;-81
2023/11/02 11:45:37;;;;;;;1.98;0.80;;;13.50;99.90;;;;;;5042659;28;20021;-82
2023/11/02 11:48:04;;;;;;;1.17;0.60;;;13.50;99.90;;;;;;5041311;28;20029;-82
2023/11/02 11:50:34;;;;;;;1.25;0.45;;;13.50;99.90;;;;;;5043098;28;20071;-81
2023/11/02 11:53:19;;;;;;;2.17;0.80;;;13.50;99.90;;;;;;5036356;28;20026;-81
2023/11/02 11:56:01;;;;;;;1.10;0.60;;;13.60;99.90;;;;;;5039779;28;20022;-81
2023/11/02 11:58:40;;;;;;;0.50;0.47;;;13.60;99.90;;;;;;5049879;28;20125;-81
2023/11/02 12:01:17;;;;;;;0.85;0.60;;;13.70;99.90;;;;;;5030230;28;20033;-80
2023/11/02 12:03:49;;;;;;;2.05;0.60;;;13.70;99.90;;;;;;5039825;28;20171;-80
2023/11/02 12:06:35;;;;;;;0.88;0.80;;;13.70;99.90;;;;;;5038740;28;20033;-80
2023/11/02 12:09:03;;;;;;;0.70;0.70;;;13.70;99.90;;;;;;5035063;28;20074;-80
2023/11/02 12:11:30;;;;;;;0.75;0.57;;;13.70;99.90;;;;;;5041906;28;20018;-80
2023/11/02 12:14:00;;;;;;;1.17;1.08;;;13.70;99.90;;;;;;5038822;28;20473;-81
2023/11/02 12:16:35;;;;;;;2.40;0.47;;;13.70;99.90;;;;;;5036991;28;20528;-81
2023/11/02 12:19:03;;;;;;;2.25;0.77;;;13.70;99.90;;;;;;5043559;28;20040;-81
2023/11/02 12:21:28;;;;;;;0.88;0.88;;;13.70;99.90;;;;;;5041823;28;20013;-81
2023/11/02 12:23:55;;;;;;;1.00;0.90;;;13.70;99.90;;;;;;5039349;28;20380;-81
2023/11/02 12:26:24;;;;;;;0.93;0.80;;;13.70;99.90;;;;;;5041535;28;20021;-81
2023/11/02 12:28:58;;;;;;;1.67;0.80;;;13.70;99.90;;;;;;5040896;28;20040;-81
2023/11/02 12:31:32;;;;;;;0.50;0.47;;;13.70;99.90;;;;;;5037386;28;20029;-81
2023/11/02 12:34:04;;;;;;;1.83;1.00;;;13.80;99.90;;;;;;5039411;28;20436;-81
2023/11/02 12:36:30;;;;;;;;;;;13.80;99.90;;;;;;5036961;28;20032;-81
2023/11/02 12:38:56;;;;;;;1.35;1.02;;;13.90;99.90;;;;;;5039538;28;19917;-81
2023/11/02 12:41:26;;;;;;;1.10;1.00;;;13.90;99.90;;;;;;5041325;28;20025;-81
2023/11/02 12:44:08;;;;;;;0.80;0.80;;;13.90;99.90;;;;;;5039300;28;20021;-80
2023/11/02 12:46:42;;;;;;;1.90;0.88;;;13.90;99.90;;;;;;5039632;28;20010;-81
2023/11/02 12:49:25;;;;;;;0.70;0.70;;;14.00;99.90;;;;;;5036760;28;20075;-81
2023/11/02 12:51:59;;;;;;;2.10;0.90;;;14.00;99.90;;;;;;5038747;28;20100;-80
2023/11/02 12:54:28;;;;;;;1.02;0.88;;;14.10;99.90;;;;;;5041093;28;20025;-81
2023/11/02 12:57:09;;;;;;;1.05;0.95;;;14.10;99.90;;;;;;5037467;28;20030;-81
2023/11/02 12:59:42;;;;;;;1.70;1.05;;;14.10;99.90;;;;;;5042341;28;20117;-80
2023/11/02 13:02:11;;;;;;;2.30;1.27;;;14.10;99.90;;;;;;5019094;28;20393;-81
2023/11/02 13:04:52;;;;;;;3.72;1.45;;;14.10;99.90;;;;;;5040613;28;20024;-81